Time;durP1;ratioP1;P1;durP2;ratioP2;P2;SDS_P1;SDS_P2;PMS_P1;PMS_P2;Temp;Humidity;BMP_temperature;BMP_pressure;BME280_temperature;BME280_humidity;BME280_pressure;Samples;Min_cycle;Max_cycle;Signal;HPM_P1;HPM_P2
2021/03/03 00:01:24;;;;;;;3.55;2.80;;;2.50;58.10;;;;;;5057656;29;20077;-66
2021/03/03 00:03:56;;;;;;;3.95;2.80;;;2.50;57.20;;;;;;5057573;29;20047;-66
2021/03/03 00:06:28;;;;;;;3.60;2.63;;;2.50;56.70;;;;;;5057679;29;20515;-66
2021/03/03 00:08:59;;;;;;;4.97;3.20;;;2.50;56.10;;;;;;5058069;29;20045;-66
2021/03/03 00:11:31;;;;;;;4.10;2.90;;;2.60;55.90;;;;;;5057769;29;20431;-67
2021/03/03 00:14:03;;;;;;;5.95;3.92;;;2.60;55.90;;;;;;5056592;29;20056;-67
2021/03/03 00:16:34;;;;;;;5.78;3.95;;;2.60;58.70;;;;;;5024230;29;20055;-67
2021/03/03 00:19:06;;;;;;;9.55;4.55;;;2.60;59.20;;;;;;5056748;29;20619;-66
2021/03/03 00:21:38;;;;;;;7.50;4.13;;;2.50;59.30;;;;;;5040349;29;20167;-65
2021/03/03 00:24:09;;;;;;;7.63;3.90;;;2.50;60.10;;;;;;5058435;29;20582;-66
2021/03/03 00:26:41;;;;;;;6.05;3.70;;;2.40;59.70;;;;;;5057515;29;20057;-68
2021/03/03 00:29:12;;;;;;;5.03;3.42;;;2.40;58.80;;;;;;5057461;29;20159;-66
2021/03/03 00:31:44;;;;;;;4.10;3.10;;;2.40;60.20;;;;;;5056603;29;20128;-66
2021/03/03 00:34:15;;;;;;;8.02;3.63;;;2.30;60.40;;;;;;5057014;29;20052;-65
2021/03/03 00:36:46;;;;;;;6.38;3.90;;;2.20;60.20;;;;;;5057204;29;20143;-67
2021/03/03 00:39:18;;;;;;;6.47;3.97;;;2.10;61.20;;;;;;5054951;29;20053;-66
2021/03/03 00:41:49;;;;;;;6.38;3.42;;;2.10;61.60;;;;;;5056997;29;20049;-66
2021/03/03 00:44:21;;;;;;;3.85;2.95;;;2.00;58.00;;;;;;5041357;29;20539;-66
2021/03/03 00:46:52;;;;;;;4.10;2.95;;;2.10;57.70;;;;;;5055801;29;20050;-66
2021/03/03 00:49:26;;;;;;;5.45;3.03;;;2.10;57.20;;;;;;5057726;29;20052;-66
2021/03/03 00:51:57;;;;;;;5.25;3.03;;;2.10;56.80;;;;;;5040255;29;20526;-67
2021/03/03 00:54:29;;;;;;;3.45;2.78;;;2.20;56.80;;;;;;5041392;29;20475;-66
2021/03/03 00:57:00;;;;;;;4.45;3.13;;;2.20;56.30;;;;;;5056557;29;20040;-66
2021/03/03 00:59:32;;;;;;;4.32;2.70;;;2.30;57.30;;;;;;5057064;29;20040;-66
2021/03/03 01:02:03;;;;;;;3.67;2.78;;;2.30;56.50;;;;;;5056100;29;20047;-66
2021/03/03 01:04:37;;;;;;;4.60;3.30;;;2.30;56.40;;;;;;5057313;29;20055;-66
2021/03/03 01:07:09;;;;;;;4.75;3.20;;;2.30;59.20;;;;;;5039650;29;20037;-67
2021/03/03 01:09:41;;;;;;;4.80;2.92;;;2.20;59.50;;;;;;5056232;29;20464;-67
2021/03/03 01:12:13;;;;;;;3.70;2.80;;;2.30;58.10;;;;;;5054360;29;20521;-66
2021/03/03 01:14:47;;;;;;;3.70;2.78;;;2.20;56.40;;;;;;5055248;29;20096;-66
2021/03/03 01:17:22;;;;;;;4.25;3.10;;;2.30;57.90;;;;;;5056229;29;20067;-66
2021/03/03 01:19:54;;;;;;;4.88;2.70;;;2.30;57.80;;;;;;5057443;29;20052;-66
2021/03/03 01:22:25;;;;;;;3.38;2.88;;;2.30;55.50;;;;;;5056374;29;20127;-66
2021/03/03 01:24:56;;;;;;;3.85;2.90;;;2.30;55.80;;;;;;5057234;29;20076;-66
2021/03/03 01:27:28;;;;;;;4.20;3.20;;;2.30;56.10;;;;;;5055061;29;20183;-66
2021/03/03 01:29:59;;;;;;;5.65;3.58;;;2.40;56.90;;;;;;5057158;29;20064;-66
2021/03/03 01:32:30;;;;;;;3.67;2.90;;;2.40;57.60;;;;;;5056204;29;20049;-66
2021/03/03 01:35:02;;;;;;;4.32;3.13;;;2.40;57.30;;;;;;5056090;29;20041;-67
2021/03/03 01:37:34;;;;;;;5.85;3.70;;;2.30;57.70;;;;;;5056326;29;20108;-66
2021/03/03 01:40:06;;;;;;;4.70;3.40;;;2.20;59.00;;;;;;5057413;29;20059;-67
2021/03/03 01:42:38;;;;;;;6.10;3.50;;;1.90;61.10;;;;;;5056186;29;20056;-68
2021/03/03 01:45:10;;;;;;;5.43;3.60;;;1.80;60.20;;;;;;5056081;29;20431;-66
2021/03/03 01:47:42;;;;;;;5.70;3.17;;;1.90;59.80;;;;;;5054371;29;20052;-67
2021/03/03 01:50:14;;;;;;;5.72;3.15;;;1.80;61.00;;;;;;5038583;29;20044;-67
2021/03/03 01:52:45;;;;;;;4.28;3.00;;;1.80;60.60;;;;;;5039975;29;20064;-66
2021/03/03 01:55:17;;;;;;;5.80;3.50;;;1.80;60.40;;;;;;5056272;29;20758;-66
2021/03/03 01:57:51;;;;;;;4.80;3.25;;;1.80;60.20;;;;;;5056360;29;20044;-67
2021/03/03 02:00:23;;;;;;;4.80;3.40;;;1.80;60.70;;;;;;5039142;29;20056;-66
2021/03/03 02:02:54;;;;;;;4.50;3.22;;;1.80;60.70;;;;;;5056790;29;20080;-66
2021/03/03 02:05:28;;;;;;;3.90;2.90;;;1.70;61.20;;;;;;5053537;29;20048;-66
2021/03/03 02:08:15;;;;;;;4.45;3.05;;;1.70;60.50;;;;;;5056052;29;20060;-67
2021/03/03 02:10:56;;;;;;;4.82;3.40;;;1.60;62.20;;;;;;5055436;29;20159;-66
2021/03/03 02:13:33;;;;;;;5.32;3.58;;;1.60;61.90;;;;;;5055093;29;20558;-67
2021/03/03 02:16:07;;;;;;;5.10;3.72;;;1.60;61.30;;;;;;5055386;29;20198;-66
2021/03/03 02:18:41;;;;;;;4.20;3.10;;;1.60;61.30;;;;;;5056613;29;20080;-66
2021/03/03 02:21:28;;;;;;;4.60;3.33;;;1.60;61.20;;;;;;5053920;29;20087;-67
2021/03/03 02:24:15;;;;;;;6.30;3.15;;;1.60;59.10;;;;;;5052574;29;20040;-67
2021/03/03 02:26:51;;;;;;;4.00;2.97;;;1.70;58.40;;;;;;5055483;29;20056;-67
2021/03/03 02:29:28;;;;;;;3.72;2.70;;;1.70;58.50;;;;;;5055851;29;20048;-66
2021/03/03 02:31:59;;;;;;;3.38;2.83;;;1.80;57.00;;;;;;5036247;29;20060;-66
2021/03/03 02:34:32;;;;;;;6.45;3.75;;;1.90;57.20;;;;;;5055580;29;20724;-66
2021/03/03 02:37:04;;;;;;;4.53;3.20;;;1.90;59.20;;;;;;5055764;29;20155;-66
2021/03/03 02:39:36;;;;;;;5.22;3.40;;;1.80;59.60;;;;;;5055845;29;20117;-67
2021/03/03 02:42:08;;;;;;;4.53;3.33;;;1.80;60.00;;;;;;5052851;29;20056;-67
2021/03/03 02:44:41;;;;;;;4.68;3.40;;;1.80;60.30;;;;;;5055830;29;20582;-66
2021/03/03 02:47:13;;;;;;;5.35;3.13;;;1.60;60.70;;;;;;5054886;29;20485;-66
2021/03/03 02:49:45;;;;;;;9.18;3.17;;;1.60;60.80;;;;;;5037186;29;20499;-66
2021/03/03 02:52:17;;;;;;;6.00;3.60;;;1.60;61.10;;;;;;5052793;29;20044;-68
2021/03/03 02:54:48;;;;;;;5.47;3.58;;;1.50;61.50;;;;;;5059242;29;20044;-66
2021/03/03 02:57:21;;;;;;;4.32;3.38;;;1.40;62.30;;;;;;5059419;29;20053;-66
2021/03/03 02:59:55;;;;;;;4.50;3.10;;;1.40;62.10;;;;;;5060082;29;20057;-65
2021/03/03 03:02:27;;;;;;;4.88;3.40;;;1.40;62.10;;;;;;5059597;29;20145;-66
2021/03/03 03:05:03;;;;;;;3.30;2.88;;;1.40;62.80;;;;;;5059391;29;20100;-66
2021/03/03 03:07:39;;;;;;;4.35;2.97;;;1.40;60.80;;;;;;5058358;29;20064;-67
2021/03/03 03:10:15;;;;;;;3.97;3.08;;;1.50;60.30;;;;;;5059291;29;20044;-67
2021/03/03 03:12:54;;;;;;;3.53;2.70;;;1.50;61.80;;;;;;5059567;29;20048;-66
2021/03/03 03:15:30;;;;;;;4.40;2.90;;;1.50;59.70;;;;;;5058777;29;20048;-67
2021/03/03 03:18:07;;;;;;;3.88;3.13;;;1.60;59.00;;;;;;5043194;29;20139;-66
2021/03/03 03:20:39;;;;;;;6.32;3.20;;;1.60;61.20;;;;;;5059195;29;20060;-66
2021/03/03 03:23:12;;;;;;;4.15;3.03;;;1.60;60.90;;;;;;5059846;29;20059;-66
2021/03/03 03:25:45;;;;;;;4.03;3.10;;;1.60;61.30;;;;;;5058449;29;20513;-66
2021/03/03 03:28:18;;;;;;;4.05;2.92;;;1.60;60.80;;;;;;5059645;29;20522;-66
2021/03/03 03:30:51;;;;;;;3.90;2.80;;;1.60;61.10;;;;;;5058684;29;20152;-66
2021/03/03 03:33:23;;;;;;;4.22;3.30;;;1.60;60.90;;;;;;5059481;29;20057;-66
2021/03/03 03:35:54;;;;;;;5.45;3.40;;;1.60;61.10;;;;;;5058515;29;20701;-66
2021/03/03 03:38:27;;;;;;;5.55;3.05;;;1.60;61.70;;;;;;5042108;29;20056;-66
2021/03/03 03:41:01;;;;;;;3.92;3.25;;;1.60;62.50;;;;;;5058780;29;20049;-66
2021/03/03 03:43:36;;;;;;;4.97;3.20;;;1.60;61.80;;;;;;5059353;29;20056;-66
2021/03/03 03:46:08;;;;;;;3.90;3.00;;;1.60;61.90;;;;;;5058284;29;20052;-66
2021/03/03 03:48:40;;;;;;;3.15;2.70;;;1.50;61.20;;;;;;5058975;29;20128;-67
2021/03/03 03:51:12;;;;;;;3.70;2.90;;;1.50;60.40;;;;;;5055534;29;20089;-67
2021/03/03 03:53:44;;;;;;;3.60;2.88;;;1.60;59.20;;;;;;5042433;29;20055;-67
2021/03/03 03:56:15;;;;;;;3.17;2.63;;;1.80;58.20;;;;;;5057023;29;20052;-66
2021/03/03 03:58:47;;;;;;;4.43;3.20;;;1.90;57.40;;;;;;5042935;29;20762;-66
2021/03/03 04:01:19;;;;;;;4.40;2.90;;;1.90;59.80;;;;;;5057590;29;20079;-66
2021/03/03 04:03:50;;;;;;;4.38;2.97;;;1.70;61.50;;;;;;5058734;29;20082;-66
2021/03/03 04:06:22;;;;;;;4.45;2.85;;;1.60;61.80;;;;;;5057891;29;20685;-66
2021/03/03 04:08:53;;;;;;;5.95;3.20;;;1.60;62.10;;;;;;5059108;29;20115;-66
2021/03/03 04:11:25;;;;;;;3.78;2.78;;;1.60;62.00;;;;;;5056026;29;20053;-66
2021/03/03 04:13:56;;;;;;;4.20;2.88;;;1.60;61.80;;;;;;5058045;29;20112;-66
2021/03/03 04:16:27;;;;;;;4.72;3.45;;;1.60;62.30;;;;;;5057904;29;20917;-66
2021/03/03 04:18:59;;;;;;;4.38;2.88;;;1.60;62.40;;;;;;5058638;29;20056;-66
2021/03/03 04:21:31;;;;;;;5.68;3.17;;;1.50;62.90;;;;;;5040513;29;20143;-66
2021/03/03 04:24:02;;;;;;;4.50;2.65;;;1.30;63.20;;;;;;5058220;29;20471;-66
2021/03/03 04:26:34;;;;;;;4.43;3.15;;;1.40;62.90;;;;;;5058040;29;20471;-65
2021/03/03 04:29:05;;;;;;;3.90;2.90;;;1.40;62.90;;;;;;5058318;29;20086;-66
2021/03/03 04:31:37;;;;;;;4.35;3.28;;;1.30;63.80;;;;;;5057891;29;20135;-65
2021/03/03 04:34:08;;;;;;;3.42;2.60;;;1.40;62.70;;;;;;5056643;29;21536;-66
2021/03/03 04:36:40;;;;;;;3.92;2.70;;;1.40;62.80;;;;;;5056878;29;20048;-65
2021/03/03 04:39:11;;;;;;;2.92;2.50;;;1.40;62.20;;;;;;5058104;29;20131;-66
2021/03/03 04:41:42;;;;;;;4.88;2.65;;;1.40;60.00;;;;;;5057233;29;20049;-66
2021/03/03 04:44:15;;;;;;;4.50;2.83;;;1.60;61.20;;;;;;5057924;29;20496;-66
2021/03/03 04:46:46;;;;;;;4.35;3.10;;;1.60;61.30;;;;;;5040748;29;20044;-66
2021/03/03 04:49:18;;;;;;;3.92;2.75;;;1.70;61.70;;;;;;5057218;29;20056;-68
2021/03/03 04:51:49;;;;;;;5.00;3.10;;;1.70;61.20;;;;;;5057217;29;20108;-66
2021/03/03 04:54:21;;;;;;;4.43;2.83;;;1.70;60.50;;;;;;5057466;29;20140;-65
2021/03/03 04:56:52;;;;;;;4.38;2.90;;;1.70;60.70;;;;;;5056829;29;20075;-66
2021/03/03 04:59:24;;;;;;;6.00;3.03;;;1.60;61.10;;;;;;5057653;29;20519;-65
2021/03/03 05:01:55;;;;;;;4.90;3.03;;;1.60;62.30;;;;;;5056625;29;20070;-65
2021/03/03 05:04:27;;;;;;;4.57;3.00;;;1.50;62.30;;;;;;5040794;29;20056;-65
2021/03/03 05:06:58;;;;;;;4.07;3.05;;;1.50;61.10;;;;;;5056481;29;20072;-66
2021/03/03 05:09:30;;;;;;;5.72;3.22;;;1.50;61.10;;;;;;5058257;29;20529;-65
2021/03/03 05:12:01;;;;;;;6.38;4.47;;;1.60;62.30;;;;;;5055451;29;20131;-66
2021/03/03 05:14:33;;;;;;;5.25;3.38;;;1.60;62.00;;;;;;5057407;29;20113;-66
2021/03/03 05:17:05;;;;;;;4.03;2.85;;;1.60;61.60;;;;;;5055470;29;20067;-66
2021/03/03 05:19:36;;;;;;;3.88;2.80;;;1.60;61.50;;;;;;5057255;29;20055;-65
2021/03/03 05:22:08;;;;;;;3.55;2.75;;;1.50;61.60;;;;;;5056010;29;20049;-66
2021/03/03 05:24:39;;;;;;;3.67;2.80;;;1.50;62.10;;;;;;5056528;29;20135;-66
2021/03/03 05:27:11;;;;;;;2.90;2.60;;;1.50;59.80;;;;;;5039300;29;20068;-67
2021/03/03 05:29:42;;;;;;;5.57;2.90;;;1.60;59.60;;;;;;5056926;29;20219;-66
2021/03/03 05:32:13;;;;;;;3.17;2.63;;;1.70;60.60;;;;;;5055555;29;20088;-66
2021/03/03 05:34:45;;;;;;;3.83;2.97;;;1.70;62.00;;;;;;5056023;29;20072;-66
2021/03/03 05:37:17;;;;;;;4.35;3.15;;;1.70;61.50;;;;;;5053098;29;20240;-67
2021/03/03 05:39:48;;;;;;;4.47;3.30;;;1.60;62.00;;;;;;5056526;29;20048;-66
2021/03/03 05:42:20;;;;;;;4.05;2.90;;;1.60;62.00;;;;;;5053810;29;20478;-66
2021/03/03 05:44:52;;;;;;;4.47;3.28;;;1.60;62.80;;;;;;5055588;29;20076;-67
2021/03/03 05:47:26;;;;;;;5.68;3.38;;;1.60;61.60;;;;;;5038132;29;20111;-66
2021/03/03 05:50:01;;;;;;;5.35;3.40;;;1.60;61.60;;;;;;5055797;29;20157;-66
2021/03/03 05:52:33;;;;;;;4.53;3.30;;;1.60;61.80;;;;;;5038537;29;20116;-66
2021/03/03 05:55:05;;;;;;;4.95;2.70;;;1.50;61.80;;;;;;5054797;29;20040;-67
2021/03/03 05:57:37;;;;;;;4.45;2.75;;;1.60;60.30;;;;;;5055477;29;20571;-68
2021/03/03 06:00:09;;;;;;;4.95;2.80;;;1.70;59.50;;;;;;5052567;29;20048;-66
2021/03/03 06:02:41;;;;;;;7.93;3.10;;;1.70;60.20;;;;;;5055657;29;20049;-66
2021/03/03 06:05:13;;;;;;;7.90;4.10;;;1.70;61.70;;;;;;5055036;29;20059;-66
2021/03/03 06:07:46;;;;;;;7.07;4.32;;;1.60;62.20;;;;;;5054271;29;20052;-66
2021/03/03 06:10:17;;;;;;;5.47;3.20;;;1.40;62.40;;;;;;5052418;29;20056;-65
2021/03/03 06:12:49;;;;;;;5.30;3.10;;;1.40;62.90;;;;;;5037336;29;20503;-67
2021/03/03 06:15:21;;;;;;;4.90;2.55;;;1.40;63.20;;;;;;5052891;29;20049;-67
2021/03/03 06:17:53;;;;;;;4.88;2.72;;;1.40;62.70;;;;;;5054965;29;20044;-67
2021/03/03 06:20:25;;;;;;;5.10;3.25;;;1.50;63.00;;;;;;5038454;29;20068;-66
2021/03/03 06:23:18;;;;;;;6.20;2.47;;;1.50;62.10;;;;;;5055754;29;20565;-67
2021/03/03 06:26:10;;;;;;;5.65;3.20;;;1.60;63.20;;;;;;5054279;29;20048;-68
2021/03/03 06:28:43;;;;;;;5.95;2.95;;;1.60;61.80;;;;;;5053499;29;20052;-67
2021/03/03 06:31:34;;;;;;;5.05;3.08;;;1.70;61.30;;;;;;5055759;29;20128;-67
2021/03/03 06:34:09;;;;;;;3.60;2.53;;;1.70;61.30;;;;;;5052113;29;20051;-67
2021/03/03 06:36:42;;;;;;;4.18;2.92;;;1.70;62.10;;;;;;5053426;29;20071;-68
2021/03/03 06:39:26;;;;;;;5.65;2.67;;;1.70;63.20;;;;;;5052496;29;20052;-68
2021/03/03 06:42:00;;;;;;;15.80;3.15;;;1.70;62.80;;;;;;5049743;29;20053;-68
2021/03/03 06:44:49;;;;;;;6.63;2.88;;;1.70;62.50;;;;;;5052533;29;20216;-69
2021/03/03 06:47:21;;;;;;;6.18;2.85;;;1.70;62.60;;;;;;5053859;29;20063;-68
2021/03/03 06:50:08;;;;;;;4.80;2.72;;;1.60;62.60;;;;;;5054501;29;20131;-67
2021/03/03 06:52:41;;;;;;;4.82;2.70;;;1.70;63.40;;;;;;5054754;29;20538;-67
2021/03/03 06:55:13;;;;;;;6.28;2.97;;;1.70;63.20;;;;;;5055136;29;20045;-67
2021/03/03 06:57:44;;;;;;;5.53;2.88;;;1.80;63.30;;;;;;5055711;29;20056;-67
2021/03/03 07:00:43;;;;;;;6.43;3.47;;;1.80;62.60;;;;;;5054568;29;20820;-68
2021/03/03 07:03:35;;;;;;;5.63;2.50;;;1.90;62.60;;;;;;5054228;29;20048;-67
2021/03/03 07:06:07;;;;;;;4.43;2.90;;;2.00;63.10;;;;;;5054077;29;20049;-67
2021/03/03 07:08:56;;;;;;;6.53;2.70;;;2.00;63.30;;;;;;5053713;29;20550;-66
2021/03/03 07:11:29;;;;;;;8.02;3.53;;;2.00;62.50;;;;;;5054586;29;20112;-67
2021/03/03 07:14:12;;;;;;;5.55;3.30;;;2.10;62.60;;;;;;5054834;29;20064;-67
2021/03/03 07:17:04;;;;;;;8.30;3.70;;;2.10;63.40;;;;;;5054266;29;20088;-67
2021/03/03 07:19:38;;;;;;;7.88;3.60;;;2.10;63.00;;;;;;5038716;29;20064;-66
2021/03/03 07:22:20;;;;;;;7.38;3.60;;;2.10;62.80;;;;;;5053092;29;20056;-67
2021/03/03 07:25:07;;;;;;;5.63;3.58;;;2.10;62.50;;;;;;5037801;29;20092;-68
2021/03/03 07:27:40;;;;;;;4.97;3.72;;;2.20;62.60;;;;;;5053054;29;20116;-66
2021/03/03 07:30:13;;;;;;;7.07;3.88;;;2.30;62.80;;;;;;5054566;29;20522;-67
2021/03/03 07:32:45;;;;;;;6.60;3.55;;;2.40;62.60;;;;;;5037920;29;20676;-67
2021/03/03 07:35:36;;;;;;;7.10;3.88;;;2.40;62.60;;;;;;5054452;29;20048;-67
2021/03/03 07:38:10;;;;;;;5.85;3.78;;;2.60;62.60;;;;;;5023287;29;20112;-67
2021/03/03 07:40:41;;;;;;;6.70;3.40;;;2.70;62.30;;;;;;5057209;29;20044;-67
2021/03/03 07:43:21;;;;;;;9.07;4.05;;;2.80;62.50;;;;;;5040944;29;20503;-66
2021/03/03 07:45:52;;;;;;;6.70;3.80;;;2.90;62.00;;;;;;5057952;29;20438;-67
2021/03/03 07:48:27;;;;;;;5.70;3.65;;;2.90;61.80;;;;;;5059021;29;20060;-68
2021/03/03 07:50:58;;;;;;;5.63;3.42;;;3.00;63.10;;;;;;5057632;29;20156;-66
2021/03/03 07:53:30;;;;;;;6.85;4.10;;;3.00;63.10;;;;;;5059281;29;20068;-66
2021/03/03 07:56:06;;;;;;;7.60;4.43;;;3.10;63.30;;;;;;5040960;29;20072;-66
2021/03/03 07:58:39;;;;;;;8.60;4.43;;;3.20;62.20;;;;;;5058497;29;20060;-66
2021/03/03 08:01:26;;;;;;;5.85;4.05;;;3.30;62.10;;;;;;5056902;29;20056;-66
2021/03/03 08:03:58;;;;;;;12.00;4.28;;;3.40;62.60;;;;;;5058287;29;20052;-67
2021/03/03 08:06:36;;;;;;;8.93;4.60;;;3.50;62.20;;;;;;5057849;29;20049;-66
2021/03/03 08:09:09;;;;;;;7.15;4.40;;;3.60;61.60;;;;;;5055456;29;20531;-67
2021/03/03 08:11:42;;;;;;;6.57;4.32;;;3.70;60.30;;;;;;5055487;29;20155;-66
2021/03/03 08:14:36;;;;;;;7.15;4.85;;;3.70;60.40;;;;;;5058401;29;20052;-66
2021/03/03 08:17:10;;;;;;;10.75;5.32;;;3.80;60.40;;;;;;5056244;29;20036;-66
2021/03/03 08:19:55;;;;;;;7.30;4.57;;;3.90;60.60;;;;;;5057924;29;20458;-66
2021/03/03 08:23:05;;;;;;;7.45;4.45;;;3.90;60.50;;;;;;5056775;29;20067;-66
2021/03/03 08:25:50;;;;;;;8.23;5.07;;;4.00;60.30;;;;;;4993578;29;20144;-67
2021/03/03 08:28:36;;;;;;;7.65;4.82;;;4.10;60.00;;;;;;4997938;29;20061;-66
2021/03/03 08:31:20;;;;;;;8.82;5.20;;;4.20;59.90;;;;;;5041104;29;20040;-67
2021/03/03 08:33:52;;;;;;;12.02;5.15;;;4.30;60.40;;;;;;5057342;29;20059;-67
2021/03/03 08:36:27;;;;;;;7.30;4.70;;;4.50;60.20;;;;;;5056604;29;20047;-66
2021/03/03 08:38:58;;;;;;;6.43;4.90;;;4.60;60.20;;;;;;5056412;29;20045;-68
2021/03/03 08:41:34;;;;;;;7.65;4.32;;;4.70;60.50;;;;;;5040412;29;20108;-67
2021/03/03 08:44:13;;;;;;;8.35;4.93;;;4.90;59.90;;;;;;5057336;29;20048;-68
2021/03/03 08:46:48;;;;;;;7.38;5.18;;;5.00;59.20;;;;;;5053405;29;20453;-66
2021/03/03 08:49:20;;;;;;;9.52;5.53;;;5.10;58.80;;;;;;5057202;29;20044;-66
2021/03/03 08:52:06;;;;;;;19.13;5.45;;;5.20;58.30;;;;;;5055570;29;20044;-66
2021/03/03 08:54:46;;;;;;;17.55;7.85;;;5.30;58.10;;;;;;5037890;29;20059;-67
2021/03/03 08:57:32;;;;;;;8.57;6.03;;;5.40;58.80;;;;;;5056398;29;20523;-67
2021/03/03 09:00:05;;;;;;;10.73;5.32;;;5.50;58.60;;;;;;5056838;29;20115;-67
2021/03/03 09:02:39;;;;;;;13.32;7.80;;;5.60;58.50;;;;;;5057304;29;20063;-67
2021/03/03 09:05:12;;;;;;;14.10;7.50;;;5.70;57.80;;;;;;5056029;29;20163;-67
2021/03/03 09:07:43;;;;;;;13.25;5.50;;;5.90;58.30;;;;;;5057489;29;20072;-67
2021/03/03 09:10:17;;;;;;;9.15;6.50;;;5.90;58.10;;;;;;5055853;29;20111;-66
2021/03/03 09:12:49;;;;;;;12.75;7.65;;;6.10;58.40;;;;;;5056614;29;20139;-67
2021/03/03 09:15:20;;;;;;;17.50;9.38;;;6.20;57.80;;;;;;5055988;29;20085;-67
2021/03/03 09:17:52;;;;;;;18.58;11.35;;;6.30;58.00;;;;;;5057113;29;20072;-67
2021/03/03 09:20:23;;;;;;;18.75;10.23;;;6.40;58.20;;;;;;5055932;29;20112;-67
2021/03/03 09:22:55;;;;;;;15.10;9.80;;;6.50;57.70;;;;;;5056700;29;20045;-67
2021/03/03 09:25:26;;;;;;;28.52;13.65;;;6.60;57.40;;;;;;5055744;29;20375;-67
2021/03/03 09:28:01;;;;;;;52.58;26.55;;;6.70;56.70;;;;;;5056540;29;20052;-67
2021/03/03 09:30:40;;;;;;;40.25;18.80;;;6.80;56.40;;;;;;5037209;29;20067;-66
2021/03/03 09:33:13;;;;;;;49.22;22.58;;;6.90;56.50;;;;;;5056819;29;20052;-67
2021/03/03 09:35:46;;;;;;;60.28;29.85;;;7.10;55.90;;;;;;5055566;29;20100;-67
2021/03/03 09:38:18;;;;;;;16.45;10.32;;;7.20;56.40;;;;;;5056863;29;20513;-67
2021/03/03 09:40:50;;;;;;;23.25;12.45;;;7.30;55.20;;;;;;5023743;29;20053;-67
2021/03/03 09:43:22;;;;;;;10.15;6.53;;;7.40;53.70;;;;;;5039428;29;20135;-67
2021/03/03 09:45:55;;;;;;;8.65;6.13;;;7.50;51.80;;;;;;5055213;29;20529;-68
2021/03/03 09:48:30;;;;;;;7.43;5.50;;;7.50;53.60;;;;;;5056104;29;20456;-66
2021/03/03 09:51:02;;;;;;;8.82;5.70;;;7.70;54.00;;;;;;5054406;29;20040;-67
2021/03/03 09:53:33;;;;;;;6.78;5.55;;;7.80;54.60;;;;;;5056600;29;20048;-67
2021/03/03 09:56:06;;;;;;;9.75;6.25;;;7.90;54.30;;;;;;5055624;29;20044;-67
2021/03/03 09:58:38;;;;;;;8.48;5.78;;;8.00;53.80;;;;;;5056691;29;20055;-67
2021/03/03 10:01:10;;;;;;;10.88;5.78;;;8.20;53.50;;;;;;5055732;29;20054;-68
2021/03/03 10:03:42;;;;;;;8.65;6.03;;;8.30;53.60;;;;;;5035597;29;20113;-67
2021/03/03 10:06:14;;;;;;;9.45;6.28;;;8.40;54.20;;;;;;5055116;29;20392;-67
2021/03/03 10:08:46;;;;;;;6.82;5.80;;;8.60;53.10;;;;;;5055294;29;20396;-68
2021/03/03 10:11:18;;;;;;;9.40;7.70;;;8.70;53.30;;;;;;5055532;29;20090;-67
2021/03/03 10:13:50;;;;;;;9.27;8.15;;;8.80;53.30;;;;;;5053647;29;20056;-67
2021/03/03 10:16:21;;;;;;;9.90;8.23;;;8.90;53.20;;;;;;5055520;29;20159;-67
2021/03/03 10:19:03;;;;;;;13.02;9.45;;;9.00;53.10;;;;;;5055630;29;20124;-67
2021/03/03 10:21:44;;;;;;;8.15;7.05;;;9.20;51.70;;;;;;5055356;29;20054;-67
2021/03/03 10:24:18;;;;;;;8.23;6.18;;;9.30;50.30;;;;;;5051396;29;20055;-67
2021/03/03 10:26:51;;;;;;;8.55;6.80;;;9.40;49.40;;;;;;5054835;29;20086;-67
2021/03/03 10:29:36;;;;;;;9.18;6.60;;;9.50;47.50;;;;;;5055915;29;20048;-67
2021/03/03 10:32:13;;;;;;;13.13;6.82;;;9.60;48.50;;;;;;5054545;29;20136;-67
2021/03/03 10:34:45;;;;;;;9.18;6.30;;;9.60;45.30;;;;;;5055640;29;20044;-66
2021/03/03 10:37:26;;;;;;;8.95;6.70;;;9.70;46.90;;;;;;5054828;29;20146;-67
2021/03/03 10:40:09;;;;;;;11.63;6.72;;;9.80;46.10;;;;;;5054543;29;20045;-67
2021/03/03 10:42:41;;;;;;;13.27;6.88;;;9.90;45.40;;;;;;5054146;29;20056;-67
2021/03/03 10:45:32;;;;;;;10.25;7.00;;;10.00;47.20;;;;;;5055035;29;20096;-67
2021/03/03 10:48:05;;;;;;;10.07;8.18;;;10.10;46.60;;;;;;5055395;29;20045;-67
2021/03/03 10:50:49;;;;;;;10.32;7.85;;;10.20;47.20;;;;;;5055262;29;20076;-67
2021/03/03 10:53:21;;;;;;;9.98;7.60;;;10.30;47.50;;;;;;5055682;29;20056;-68
2021/03/03 10:55:52;;;;;;;10.15;7.13;;;10.40;47.50;;;;;;5052486;29;20052;-67
2021/03/03 10:58:37;;;;;;;11.77;7.65;;;10.50;48.20;;;;;;5054870;29;20054;-67
2021/03/03 11:01:09;;;;;;;8.85;7.45;;;10.60;48.30;;;;;;5054712;29;20041;-67
2021/03/03 11:03:58;;;;;;;19.48;8.48;;;10.70;47.60;;;;;;5055249;29;20044;-67
2021/03/03 11:06:30;;;;;;;13.63;9.38;;;10.80;45.70;;;;;;5055056;29;20419;-67
2021/03/03 11:09:06;;;;;;;14.20;8.75;;;10.80;46.30;;;;;;5055389;29;20066;-70
2021/03/03 11:11:57;;;;;;;15.48;9.30;;;10.90;47.10;;;;;;5054355;29;20400;-67
2021/03/03 11:14:30;;;;;;;11.45;8.05;;;11.00;46.10;;;;;;5056216;29;20044;-67
2021/03/03 11:17:02;;;;;;;15.13;9.25;;;11.00;43.10;;;;;;5057170;29;20060;-68
2021/03/03 11:19:34;;;;;;;10.98;8.57;;;11.10;44.10;;;;;;5059586;29;20052;-67
2021/03/03 11:22:06;;;;;;;11.90;7.55;;;11.00;43.20;;;;;;5056890;29;20787;-67
2021/03/03 11:24:38;;;;;;;11.18;8.00;;;11.00;41.40;;;;;;5059853;29;20052;-70
2021/03/03 11:27:09;;;;;;;9.68;7.95;;;11.10;43.70;;;;;;5057677;29;20048;-67
2021/03/03 11:29:41;;;;;;;9.13;7.18;;;11.20;44.00;;;;;;5059644;29;20515;-67
2021/03/03 11:32:22;;;;;;;10.77;7.50;;;11.30;43.70;;;;;;5057994;29;20056;-67
2021/03/03 11:34:54;;;;;;;8.40;7.43;;;11.30;42.30;;;;;;5058759;29;20052;-67
2021/03/03 11:37:26;;;;;;;11.10;8.18;;;11.40;42.70;;;;;;5057891;29;20036;-67
2021/03/03 11:39:57;;;;;;;9.15;7.28;;;11.50;44.50;;;;;;5058761;29;20331;-67
2021/03/03 11:42:30;;;;;;;8.35;7.18;;;11.60;42.00;;;;;;5058684;29;20047;-68
2021/03/03 11:45:05;;;;;;;8.48;7.20;;;11.60;39.50;;;;;;5058382;29;20048;-69
2021/03/03 11:47:37;;;;;;;9.52;7.32;;;11.60;37.40;;;;;;5058415;29;20048;-68
2021/03/03 11:50:10;;;;;;;8.98;7.00;;;11.60;37.10;;;;;;5058869;29;20105;-67
2021/03/03 11:52:42;;;;;;;9.23;7.38;;;11.70;35.80;;;;;;5055701;29;20047;-67
2021/03/03 11:55:14;;;;;;;8.38;6.68;;;11.70;37.40;;;;;;5056963;29;20068;-68
2021/03/03 11:57:45;;;;;;;11.85;7.20;;;11.80;37.10;;;;;;5057779;29;20127;-68
2021/03/03 12:00:17;;;;;;;8.75;7.20;;;11.90;38.30;;;;;;5056631;29;20044;-68
2021/03/03 12:02:49;;;;;;;10.23;7.07;;;11.80;38.40;;;;;;5057561;29;20356;-68
2021/03/03 12:05:23;;;;;;;9.30;7.05;;;11.80;37.10;;;;;;5056057;29;20145;-67
2021/03/03 12:07:55;;;;;;;11.57;7.00;;;12.00;38.50;;;;;;5057459;29;20048;-68
2021/03/03 12:10:27;;;;;;;7.43;6.68;;;12.10;37.20;;;;;;5056745;29;20198;-67
2021/03/03 12:12:59;;;;;;;9.77;7.25;;;12.10;37.20;;;;;;5055927;29;20052;-67
2021/03/03 12:15:32;;;;;;;9.57;6.90;;;12.20;36.20;;;;;;5056419;29;20455;-68
2021/03/03 12:18:04;;;;;;;10.75;7.68;;;12.30;37.10;;;;;;5057387;29;20135;-68
2021/03/03 12:20:36;;;;;;;10.40;7.20;;;12.40;37.10;;;;;;5057737;29;20041;-69
2021/03/03 12:23:08;;;;;;;8.15;6.80;;;12.40;36.50;;;;;;5057284;29;20045;-67
2021/03/03 12:25:40;;;;;;;8.70;6.80;;;12.50;35.10;;;;;;5056380;29;20040;-67
2021/03/03 12:28:12;;;;;;;8.82;7.30;;;12.60;36.20;;;;;;5056448;29;20470;-68
2021/03/03 12:30:44;;;;;;;10.45;7.03;;;12.70;35.00;;;;;;5053952;29;20048;-68
2021/03/03 12:33:16;;;;;;;7.93;7.10;;;12.70;35.40;;;;;;5057403;29;20151;-67
2021/03/03 12:35:48;;;;;;;8.38;6.88;;;12.70;34.00;;;;;;5055983;29;20443;-67
2021/03/03 12:38:20;;;;;;;6.75;6.07;;;12.80;32.30;;;;;;5057710;29;20056;-69
2021/03/03 12:40:52;;;;;;;7.65;6.30;;;12.80;29.80;;;;;;5056553;29;20066;-67
2021/03/03 12:43:23;;;;;;;8.52;7.00;;;12.80;32.80;;;;;;5056724;29;20050;-70
2021/03/03 12:45:55;;;;;;;7.25;6.55;;;12.90;33.40;;;;;;5055986;29;20041;-67
2021/03/03 12:48:27;;;;;;;7.57;6.88;;;12.90;34.00;;;;;;5057116;29;20056;-67
2021/03/03 12:50:59;;;;;;;7.47;6.50;;;13.00;31.90;;;;;;5054516;29;20549;-67
2021/03/03 12:53:30;;;;;;;7.40;6.70;;;13.00;32.10;;;;;;5055228;29;20460;-69
2021/03/03 12:56:02;;;;;;;7.80;7.00;;;13.00;31.50;;;;;;5055401;29;20043;-68
2021/03/03 12:58:34;;;;;;;9.60;6.95;;;13.00;30.80;;;;;;5054265;29;20037;-68
2021/03/03 13:01:06;;;;;;;6.75;6.05;;;13.10;31.80;;;;;;5036500;29;20621;-68
2021/03/03 13:03:38;;;;;;;9.55;6.13;;;13.10;31.10;;;;;;5054260;29;20511;-69
2021/03/03 13:06:12;;;;;;;7.78;6.95;;;13.20;31.00;;;;;;5054341;29;20127;-71
2021/03/03 13:08:43;;;;;;;9.63;6.53;;;13.20;30.00;;;;;;5055881;29;20048;-69
2021/03/03 13:11:15;;;;;;;7.10;6.40;;;13.20;29.90;;;;;;5055463;29;20729;-68
2021/03/03 13:13:46;;;;;;;6.88;6.18;;;13.20;30.00;;;;;;5057338;29;20041;-68
2021/03/03 13:16:18;;;;;;;9.18;6.30;;;13.20;29.20;;;;;;5054726;29;20064;-70
2021/03/03 13:18:50;;;;;;;7.80;6.28;;;13.20;30.60;;;;;;5054613;29;20187;-67
2021/03/03 13:21:34;;;;;;;6.82;6.13;;;13.20;30.50;;;;;;5054682;29;20107;-66
2021/03/03 13:24:06;;;;;;;6.80;6.10;;;13.20;30.50;;;;;;5039109;29;20108;-66
2021/03/03 13:26:38;;;;;;;7.75;6.00;;;13.20;32.20;;;;;;5055885;29;20479;-67
2021/03/03 13:29:09;;;;;;;10.38;6.47;;;13.20;30.00;;;;;;5056191;29;20617;-66